createdAt,value
2023-04-15T00:01:23.698Z,101113.19
2023-04-15T00:03:55.654Z,101110.53
2023-04-15T00:06:26.018Z,101110.09
2023-04-15T00:08:56.920Z,101113.72
2023-04-15T00:11:27.068Z,101113.72
2023-04-15T00:13:57.413Z,101112.28
2023-04-15T00:16:27.772Z,101113.00
2023-04-15T00:18:58.303Z,101110.84
2023-04-15T00:21:30.132Z,101119.03
2023-04-15T00:24:00.584Z,101109.81
2023-04-15T00:26:30.516Z,101123.63
2023-04-15T00:29:01.295Z,101124.16
2023-04-15T00:31:32.809Z,101113.78
2023-04-15T00:34:03.689Z,101120.03
2023-04-15T00:36:35.052Z,101114.50
2023-04-15T00:39:06.554Z,101112.59
2023-04-15T00:41:40.238Z,101116.66
2023-04-15T00:44:12.210Z,101122.69
2023-04-15T00:46:42.954Z,101106.94
2023-04-15T00:49:14.335Z,101122.63
2023-04-15T00:51:44.223Z,101120.97
2023-04-15T00:54:15.186Z,101119.53
2023-04-15T00:56:45.927Z,101113.72
2023-04-15T00:59:16.974Z,101117.81
2023-04-15T01:01:48.170Z,101118.22
2023-04-15T01:04:19.110Z,101128.16
2023-04-15T01:06:49.122Z,101115.38
2023-04-15T01:09:19.952Z,101123.84
2023-04-15T01:11:49.894Z,101125.28
2023-04-15T01:14:19.660Z,101120.69
2023-04-15T01:16:50.060Z,101125.50
2023-04-15T01:19:20.415Z,101126.31
2023-04-15T01:21:50.825Z,101118.31
2023-04-15T01:24:22.534Z,101111.97
2023-04-15T01:26:53.190Z,101115.53
2023-04-15T01:29:24.307Z,101115.06
2023-04-15T01:31:57.117Z,101112.19
2023-04-15T01:34:29.072Z,101109.97
2023-04-15T01:36:59.453Z,101114.34
2023-04-15T01:39:29.776Z,101113.63
2023-04-15T01:42:00.358Z,101113.63
2023-04-15T01:44:33.147Z,101109.31
2023-04-15T01:47:03.611Z,101108.59
2023-04-15T01:49:33.786Z,101112.41
2023-04-15T01:52:04.233Z,101116.50
2023-04-15T01:54:34.167Z,101115.41
2023-04-15T01:57:05.037Z,101117.47
2023-04-15T01:59:35.039Z,101114.72
2023-04-15T02:02:05.558Z,101120.13
2023-04-15T02:04:35.517Z,101122.81
2023-04-15T02:07:05.850Z,101127.72
2023-04-15T02:09:35.790Z,101122.97
2023-04-15T02:12:07.290Z,101120.53
2023-04-15T02:14:37.580Z,101121.38
2023-04-15T02:17:10.073Z,101117.28
2023-04-15T02:20:45.017Z,101119.03
2023-04-15T02:23:16.901Z,101112.13
2023-04-15T02:25:53.356Z,101119.53
2023-04-15T02:28:24.645Z,101119.91
2023-04-15T02:30:55.886Z,101117.25
2023-04-15T02:33:26.672Z,101122.63
2023-04-15T02:35:56.821Z,101115.84
2023-04-15T02:38:27.300Z,101114.69
2023-04-15T02:40:57.739Z,101114.31
2023-04-15T02:43:31.663Z,101112.13
2023-04-15T02:46:03.448Z,101098.69
2023-04-15T02:48:33.504Z,101101.03
2023-04-15T02:51:15.493Z,101096.03
2023-04-15T02:53:45.311Z,101092.03
2023-04-15T02:56:16.559Z,101083.84
2023-04-15T02:58:51.658Z,101089.66
2023-04-15T03:01:22.349Z,101084.56
2023-04-15T03:03:52.232Z,101089.31
2023-04-15T03:06:22.480Z,101080.84
2023-04-15T03:08:52.817Z,101087.91
2023-04-15T03:11:23.889Z,101082.25
2023-04-15T03:13:53.544Z,101083.38
2023-04-15T03:16:30.164Z,101089.13
2023-04-15T03:19:00.966Z,101084.31
2023-04-15T03:21:32.017Z,101082.59
2023-04-15T03:24:02.001Z,101078.28
2023-04-15T03:26:33.134Z,101083.44
2023-04-15T03:29:07.688Z,101082.72
2023-04-15T03:31:37.863Z,101077.72
2023-04-15T03:34:07.770Z,101078.19
2023-04-15T03:36:38.658Z,101075.16
2023-04-15T03:39:08.331Z,101065.66
2023-04-15T03:41:37.981Z,101074.72
2023-04-15T03:44:08.087Z,101066.72
2023-04-15T03:46:37.843Z,101071.94
2023-04-15T03:49:08.829Z,101073.59
2023-04-15T03:51:38.970Z,101080.00
2023-04-15T03:54:08.639Z,101073.53
2023-04-15T03:56:38.396Z,101073.94
2023-04-15T03:59:08.449Z,101066.53
2023-04-15T04:01:38.196Z,101070.06
2023-04-15T04:04:07.983Z,101073.13
2023-04-15T04:06:38.275Z,101073.22
2023-04-15T04:09:07.913Z,101074.13
2023-04-15T04:11:38.795Z,101073.00
2023-04-15T04:14:08.923Z,101076.06
2023-04-15T04:16:38.681Z,101070.25
2023-04-15T04:19:08.531Z,101068.63
2023-04-15T04:21:39.993Z,101070.97
2023-04-15T04:24:09.719Z,101069.03
2023-04-15T04:26:39.826Z,101072.97
2023-04-15T04:29:09.503Z,101076.41
2023-04-15T04:31:39.219Z,101066.53
2023-04-15T04:34:09.372Z,101065.72
2023-04-15T04:36:39.049Z,101064.59
2023-04-15T04:39:09.056Z,101069.44
2023-04-15T04:41:39.205Z,101057.31
2023-04-15T04:44:08.859Z,101065.22
2023-04-15T04:46:38.649Z,101061.13
2023-04-15T04:49:08.772Z,101058.34
2023-04-15T04:51:38.580Z,101053.34
2023-04-15T04:54:08.757Z,101055.78
2023-04-15T04:56:40.743Z,101057.22
2023-04-15T04:59:10.670Z,101060.50
2023-04-15T05:01:40.953Z,101052.50
2023-04-15T05:04:10.732Z,101046.25
2023-04-15T05:06:41.020Z,101050.97
2023-04-15T05:09:10.760Z,101051.88
2023-04-15T05:11:40.472Z,101048.75
2023-04-15T05:14:10.563Z,101045.53
2023-04-15T05:16:40.282Z,101048.50
2023-04-15T05:19:10.705Z,101053.41
2023-04-15T05:21:40.956Z,101049.00
2023-04-15T05:24:10.741Z,101042.13
2023-04-15T05:26:41.937Z,101051.53
2023-04-15T05:29:12.474Z,101040.91
2023-04-15T05:32:38.591Z,101042.38
2023-04-15T05:35:26.868Z,101026.13
2023-04-15T05:37:57.563Z,101029.59
2023-04-15T05:40:27.766Z,101025.59
2023-04-15T05:42:58.272Z,101027.59
2023-04-15T05:45:28.443Z,101018.78
2023-04-15T05:47:58.947Z,101015.88
2023-04-15T05:50:29.443Z,101011.47
2023-04-15T05:53:00.578Z,101016.25
2023-04-15T05:55:30.588Z,101006.31
2023-04-15T05:58:00.966Z,101005.47
2023-04-15T06:00:30.968Z,101002.47
2023-04-15T06:03:01.742Z,101004.78
2023-04-15T06:05:31.708Z,101007.88
2023-04-15T06:08:02.598Z,101002.88
2023-04-15T06:10:37.416Z,101005.47
2023-04-15T06:13:08.280Z,100998.78
2023-04-15T06:15:38.829Z,100998.84
2023-04-15T06:18:09.126Z,100994.75
2023-04-15T06:20:39.076Z,100997.78
2023-04-15T06:23:09.373Z,100992.34
2023-04-15T06:25:39.311Z,100993.97
2023-04-15T06:28:09.923Z,100987.34
2023-04-15T06:30:40.253Z,100992.13
2023-04-15T06:33:11.927Z,100994.19
2023-04-15T06:35:42.198Z,100989.03
2023-04-15T06:38:12.582Z,100995.75
2023-04-15T06:40:42.550Z,100992.56
2023-04-15T06:43:12.874Z,100997.03
2023-04-15T06:45:42.691Z,100996.22
2023-04-15T06:48:13.977Z,100998.66
2023-04-15T06:50:44.247Z,101002.25
2023-04-15T06:53:14.648Z,100991.59
2023-04-15T06:55:44.556Z,100983.28
2023-04-15T06:58:14.989Z,100991.84
2023-04-15T07:00:45.745Z,100981.25
2023-04-15T07:03:16.330Z,100981.47
2023-04-15T07:05:46.881Z,100983.19
2023-04-15T07:08:17.188Z,100979.88
2023-04-15T07:10:48.302Z,100982.22
2023-04-15T07:13:18.772Z,100991.00
2023-04-15T07:15:48.649Z,100990.97
2023-04-15T07:18:19.027Z,100999.94
2023-04-15T07:20:49.157Z,100995.34
2023-04-15T07:23:19.739Z,101005.41
2023-04-15T07:25:49.662Z,101007.28
2023-04-15T07:28:20.058Z,101005.91
2023-04-15T07:30:50.561Z,101002.19
2023-04-15T07:33:21.058Z,101007.84
2023-04-15T07:35:51.201Z,101002.56
2023-04-15T07:38:21.621Z,101004.66
2023-04-15T07:40:51.897Z,101000.75
2023-04-15T07:43:23.185Z,100998.22
2023-04-15T07:45:53.183Z,101004.19
2023-04-15T07:48:23.871Z,101007.09
2023-04-15T07:50:53.956Z,101002.00
2023-04-15T07:53:24.353Z,101001.38
2023-04-15T07:55:54.241Z,100992.50
2023-04-15T07:58:24.652Z,101000.38
2023-04-15T08:00:56.253Z,100998.72
2023-04-15T08:03:27.252Z,101003.25
2023-04-15T08:05:57.335Z,101012.25
2023-04-15T08:08:27.779Z,101008.16
2023-04-15T08:10:57.718Z,101013.88
2023-04-15T08:13:28.808Z,101012.03
2023-04-15T08:16:24.627Z,101020.00
2023-04-15T08:18:59.066Z,101022.91
2023-04-15T08:21:31.850Z,101024.81
2023-04-15T08:24:02.853Z,101019.28
2023-04-15T08:26:32.821Z,101016.53
2023-04-15T08:29:03.535Z,101031.81
2023-04-15T08:31:33.559Z,101038.66
2023-04-15T08:34:04.726Z,101035.50
2023-04-15T08:36:34.802Z,101036.66
2023-04-15T08:39:05.980Z,101034.06
2023-04-15T08:42:08.315Z,101037.91
2023-04-15T08:44:39.436Z,101043.63
2023-04-15T08:47:10.692Z,101038.88
2023-04-15T08:49:45.681Z,101041.47
2023-04-15T08:52:16.110Z,101035.94
2023-04-15T08:54:47.765Z,101043.03
2023-04-15T08:57:17.810Z,101034.06
2023-04-15T08:59:48.640Z,101043.13
2023-04-15T09:02:18.807Z,101044.22
2023-04-15T09:04:49.330Z,101050.19
2023-04-15T09:07:19.266Z,101052.56
2023-04-15T09:09:50.601Z,101055.41
2023-04-15T09:16:55.107Z,101057.94
2023-04-15T09:19:27.498Z,101058.06
2023-04-15T09:21:59.776Z,101061.19
2023-04-15T09:24:40.296Z,101065.19
2023-04-15T09:27:10.031Z,101065.59
2023-04-15T09:29:39.653Z,101066.63
2023-04-15T09:32:14.545Z,101069.00
2023-04-15T09:34:44.682Z,101067.00
2023-04-15T09:37:28.990Z,101067.44
2023-04-15T09:40:02.034Z,101058.84
2023-04-15T09:42:32.197Z,101059.44
2023-04-15T09:45:13.301Z,101068.00
2023-04-15T09:47:43.622Z,101061.34
2023-04-15T09:50:13.266Z,101059.38
2023-04-15T09:52:46.226Z,101059.22
2023-04-15T09:55:18.219Z,101071.41
2023-04-15T09:57:48.563Z,101067.06
2023-04-15T10:00:18.820Z,101065.53
2023-04-15T10:02:49.688Z,101065.75
2023-04-15T10:05:20.243Z,101078.97
2023-04-15T10:07:51.229Z,101076.03
2023-04-15T10:10:21.774Z,101081.06
2023-04-15T10:12:53.656Z,101078.09
2023-04-15T10:15:24.819Z,101081.97
2023-04-15T10:17:55.796Z,101086.28
2023-04-15T10:20:26.399Z,101086.22
2023-04-15T10:22:56.403Z,101079.41
2023-04-15T10:25:28.965Z,101084.53
2023-04-15T10:27:59.803Z,101084.88
2023-04-15T10:30:29.967Z,101090.41
2023-04-15T10:33:00.740Z,101094.72
2023-04-15T10:35:32.129Z,101082.25
2023-04-15T10:38:02.312Z,101098.66
2023-04-15T10:40:33.755Z,101095.84
2023-04-15T10:43:04.807Z,101095.66
2023-04-15T10:45:39.178Z,101093.28
2023-04-15T10:48:10.280Z,101092.66
2023-04-15T10:50:40.531Z,101091.75
2023-04-15T10:53:12.881Z,101099.25
2023-04-15T10:55:42.581Z,101093.53
2023-04-15T10:58:12.435Z,101100.53
2023-04-15T11:00:42.559Z,101102.84
2023-04-15T11:03:13.229Z,101093.72
2023-04-15T11:05:43.618Z,101095.81
2023-04-15T11:08:14.363Z,101089.69
2023-04-15T11:10:44.447Z,101095.13
2023-04-15T11:13:13.903Z,101098.84
2023-04-15T11:15:48.476Z,101095.03
2023-04-15T11:18:25.300Z,101106.06
2023-04-15T11:20:58.456Z,101091.88
2023-04-15T11:23:45.171Z,101095.94
2023-04-15T11:26:15.201Z,101094.75
2023-04-15T11:28:47.301Z,101100.78
2023-04-15T11:31:18.964Z,101097.00
2023-04-15T11:33:55.759Z,101094.19
2023-04-15T11:36:29.962Z,101098.81
2023-04-15T11:39:00.985Z,101102.25
2023-04-15T11:41:30.784Z,101101.72
2023-04-15T11:44:01.014Z,101112.41
2023-04-15T11:46:32.882Z,101107.94
2023-04-15T11:49:02.932Z,101110.13
2023-04-15T11:51:36.843Z,101119.22
2023-04-15T11:54:07.710Z,101133.16
2023-04-15T11:56:38.392Z,101130.97
2023-04-15T11:59:08.437Z,101127.34
2023-04-15T12:01:43.455Z,101128.78
2023-04-15T12:04:21.662Z,101146.78
2023-04-15T12:06:54.181Z,101147.03
2023-04-15T12:09:24.430Z,101140.81
2023-04-15T12:11:58.610Z,101147.44
2023-04-15T12:14:29.977Z,101148.88
2023-04-15T12:17:02.545Z,101140.78
2023-04-15T12:19:33.830Z,101143.28
2023-04-15T12:22:12.697Z,101137.66
2023-04-15T12:24:50.718Z,101143.09
2023-04-15T12:27:20.578Z,101132.88
2023-04-15T12:29:50.055Z,101137.66
2023-04-15T12:32:23.953Z,101137.63
2023-04-15T12:34:55.529Z,101143.16
2023-04-15T12:37:25.625Z,101134.09
2023-04-15T12:39:55.505Z,101139.91
2023-04-15T12:42:25.325Z,101136.44
2023-04-15T12:44:55.307Z,101134.25
2023-04-15T12:47:25.028Z,101141.16
2023-04-15T12:49:55.107Z,101128.06
2023-04-15T12:52:25.654Z,101121.34
2023-04-15T12:54:55.719Z,101128.38
2023-04-15T12:57:25.523Z,101127.75
2023-04-15T12:59:55.190Z,101129.03
2023-04-15T13:02:26.676Z,101126.50
2023-04-15T13:04:56.997Z,101126.38
2023-04-15T13:07:27.250Z,101126.34
2023-04-15T13:09:56.986Z,101116.97
2023-04-15T13:12:26.753Z,101115.66
2023-04-15T13:14:57.099Z,101116.16
2023-04-15T13:17:26.962Z,101111.13
2023-04-15T13:19:57.167Z,101106.13
2023-04-15T13:22:26.906Z,101112.03
2023-04-15T13:24:56.690Z,101109.97
2023-04-15T13:27:26.794Z,101113.59
2023-04-15T13:29:56.863Z,101103.91
2023-04-15T13:32:27.483Z,101110.31
2023-04-15T13:34:57.409Z,101111.63
2023-04-15T13:37:32.225Z,101107.66
2023-04-15T13:40:02.130Z,101105.88
2023-04-15T13:42:32.324Z,101101.03
2023-04-15T13:45:01.960Z,101106.88
2023-04-15T13:47:31.899Z,101094.34
2023-04-15T13:50:02.208Z,101090.97
2023-04-15T13:52:32.300Z,101091.97
2023-04-15T13:55:18.525Z,101086.94
2023-04-15T13:57:52.789Z,101087.19
2023-04-15T14:00:22.871Z,101088.72
2023-04-15T14:02:52.524Z,101098.13
2023-04-15T14:05:22.319Z,101090.00
2023-04-15T14:07:52.497Z,101088.19
2023-04-15T14:10:22.525Z,101082.34
2023-04-15T14:12:52.684Z,101081.66
2023-04-15T14:15:23.370Z,101079.38
2023-04-15T14:17:53.559Z,101083.13
2023-04-15T14:20:23.324Z,101085.50
2023-04-15T14:22:53.043Z,101080.78
2023-04-15T14:25:30.813Z,101080.19
2023-04-15T14:28:04.496Z,101082.28
2023-04-15T14:30:34.374Z,101078.97
2023-04-15T14:33:04.917Z,101084.66
2023-04-15T14:35:34.758Z,101089.00
2023-04-15T14:38:05.204Z,101079.97
2023-04-15T14:40:35.520Z,101076.34
2023-04-15T14:43:05.628Z,101067.31
2023-04-15T14:45:36.181Z,101063.25
2023-04-15T14:48:07.691Z,101065.22
2023-04-15T14:50:38.121Z,101052.50
2023-04-15T14:53:08.394Z,101046.97
2023-04-15T14:55:39.511Z,101040.84
2023-04-15T14:58:10.520Z,101045.03
2023-04-15T15:00:43.596Z,101026.84
2023-04-15T15:03:14.240Z,101026.34
2023-04-15T15:05:46.389Z,101020.72
2023-04-15T15:08:16.191Z,101005.66
2023-04-15T15:10:49.498Z,100999.06
2023-04-15T15:13:20.589Z,100991.38
2023-04-15T15:15:53.318Z,100989.09
2023-04-15T15:18:23.535Z,100994.09
2023-04-15T15:20:53.480Z,100998.25
2023-04-15T15:23:23.539Z,100982.38
2023-04-15T15:25:53.227Z,100988.19
2023-04-15T15:28:23.054Z,100992.84
2023-04-15T15:30:53.236Z,100986.28
2023-04-15T15:33:22.766Z,100994.34
2023-04-15T15:35:52.940Z,100994.09
2023-04-15T15:38:24.067Z,100985.50
2023-04-15T15:40:53.874Z,100980.56
2023-04-15T15:43:23.962Z,100977.75
2023-04-15T15:45:56.473Z,100978.75
2023-04-15T15:48:26.866Z,100978.91
2023-04-15T15:50:56.846Z,100976.84
2023-04-15T15:53:27.061Z,100966.09
2023-04-15T15:55:56.648Z,100967.91
2023-04-15T15:58:26.451Z,100954.69
2023-04-15T16:00:55.945Z,100950.31
2023-04-15T16:03:26.313Z,100941.72
2023-04-15T16:05:55.920Z,100939.41
2023-04-15T16:08:27.384Z,100941.56
2023-04-15T16:10:58.930Z,100939.44
2023-04-15T16:13:29.961Z,100927.31
2023-04-15T16:16:00.708Z,100936.53
2023-04-15T16:18:30.665Z,100922.53
2023-04-15T16:21:01.488Z,100916.53
2023-04-15T16:23:32.415Z,100914.47
2023-04-15T16:26:02.734Z,100920.19
2023-04-15T16:28:32.796Z,100922.50
2023-04-15T16:31:03.784Z,100924.75
2023-04-15T16:33:34.749Z,100919.81
2023-04-15T16:36:06.079Z,100913.59
2023-04-15T16:38:36.672Z,100919.53
2023-04-15T16:41:07.140Z,100922.66
2023-04-15T16:43:37.700Z,100922.16
2023-04-15T16:46:07.716Z,100926.13
2023-04-15T16:48:38.241Z,100921.00
2023-04-15T16:51:08.568Z,100915.94
2023-04-15T16:53:38.670Z,100908.25
2023-04-15T16:56:09.196Z,100903.38
2023-04-15T16:58:42.743Z,100898.75
2023-04-15T17:01:13.446Z,100904.03
2023-04-15T17:03:44.198Z,100901.38
2023-04-15T17:06:16.187Z,100913.34
2023-04-15T17:08:46.599Z,100912.88
2023-04-15T17:11:17.076Z,100915.00
2023-04-15T17:13:48.277Z,100916.19
2023-04-15T17:16:18.375Z,100915.59
2023-04-15T17:18:48.952Z,100912.09
2023-04-15T17:21:19.212Z,100908.69
2023-04-15T17:23:49.649Z,100912.13
2023-04-15T17:26:20.690Z,100913.94
2023-04-15T17:28:51.325Z,100930.41
2023-04-15T17:31:21.834Z,100927.44
2023-04-15T17:33:59.854Z,100938.22
2023-04-15T17:36:37.555Z,100947.81
2023-04-15T17:39:07.838Z,100939.19
2023-04-15T17:41:38.233Z,100950.81
2023-04-15T17:44:08.647Z,100946.66
2023-04-15T17:46:38.953Z,100947.56
2023-04-15T17:49:09.286Z,100942.13
2023-04-15T17:51:39.168Z,100945.75
2023-04-15T17:54:09.911Z,100954.53
2023-04-15T17:56:39.903Z,100954.19
2023-04-15T17:59:11.042Z,100955.44
2023-04-15T18:01:43.621Z,100956.69
2023-04-15T18:04:14.265Z,100960.88
2023-04-15T18:06:44.317Z,100963.38
2023-04-15T18:09:14.720Z,100961.28
2023-04-15T18:11:46.199Z,100961.84
2023-04-15T18:14:30.807Z,100960.00
2023-04-15T18:17:04.428Z,100966.41
2023-04-15T18:19:34.799Z,100965.31
2023-04-15T18:22:05.170Z,100964.69
2023-04-15T18:24:35.592Z,100965.44
2023-04-15T18:27:05.942Z,100963.06
2023-04-15T18:29:36.354Z,100955.06
2023-04-15T18:32:06.904Z,100958.34
2023-04-15T18:34:36.941Z,100960.31
2023-04-15T18:37:06.686Z,100956.75
2023-04-15T18:39:37.196Z,100959.06
2023-04-15T18:42:07.696Z,100958.16
2023-04-15T18:44:38.087Z,100961.88
2023-04-15T18:47:08.022Z,100959.72
2023-04-15T18:49:38.338Z,100957.94
2023-04-15T18:52:08.370Z,100953.28
2023-04-15T18:54:39.183Z,100963.66
2023-04-15T18:57:09.487Z,100958.31
2023-04-15T18:59:39.791Z,100946.88
2023-04-15T19:02:10.316Z,100948.00
2023-04-15T19:04:40.773Z,100944.44
2023-04-15T19:07:10.922Z,100948.56
2023-04-15T19:09:42.230Z,100950.16
2023-04-15T19:12:12.524Z,100944.97
2023-04-15T19:14:43.203Z,100956.56
2023-04-15T19:17:13.576Z,100959.94
2023-04-15T19:19:44.237Z,100950.44
2023-04-15T19:22:14.527Z,100954.16
2023-04-15T19:24:44.966Z,100953.81
2023-04-15T19:27:15.295Z,100954.03
2023-04-15T19:29:45.267Z,100953.13
2023-04-15T19:32:15.621Z,100970.25
2023-04-15T19:34:45.959Z,100970.44
2023-04-15T19:37:15.987Z,100975.09
2023-04-15T19:39:46.301Z,100978.50
2023-04-15T19:42:16.199Z,100986.19
2023-04-15T19:44:46.580Z,100979.97
2023-04-15T19:47:16.713Z,100983.88
2023-04-15T19:49:47.078Z,100980.84
2023-04-15T19:52:16.833Z,100972.97
2023-04-15T19:54:47.277Z,100971.56
2023-04-15T19:57:17.762Z,100979.59
2023-04-15T19:59:48.106Z,100972.84
2023-04-15T20:02:18.088Z,100978.69
2023-04-15T20:04:48.542Z,100980.88
2023-04-15T20:07:18.486Z,100976.94
2023-04-15T20:09:49.127Z,100981.22
2023-04-15T20:12:51.282Z,100983.00
2023-04-15T20:15:11.271Z,100985.84
2023-04-15T20:17:41.799Z,100994.97
2023-04-15T20:20:12.411Z,100991.41
2023-04-15T20:22:42.588Z,100998.50
2023-04-15T20:25:12.956Z,100996.75
2023-04-15T20:27:42.868Z,100988.50
2023-04-15T20:30:13.362Z,100988.09
2023-04-15T20:32:43.597Z,100980.41
2023-04-15T20:35:14.184Z,100980.16
2023-04-15T20:37:47.443Z,100979.06
2023-04-15T20:40:17.545Z,100986.19
2023-04-15T20:42:47.855Z,100983.88
2023-04-15T20:45:17.990Z,100991.41
2023-04-15T20:47:48.498Z,100993.50
2023-04-15T20:50:18.535Z,100999.59
2023-04-15T20:52:48.926Z,100990.88
2023-04-15T20:55:18.930Z,100998.53
2023-04-15T20:57:49.848Z,100994.03
2023-04-15T21:00:21.308Z,100995.06
2023-04-15T21:02:53.122Z,100989.38
2023-04-15T21:05:23.792Z,100990.28
2023-04-15T21:07:55.249Z,100982.59
2023-04-15T21:10:26.373Z,100973.84
2023-04-15T21:12:56.847Z,100975.78
2023-04-15T21:15:26.921Z,100968.47
2023-04-15T21:17:57.311Z,100973.78
2023-04-15T21:20:27.076Z,100969.88
2023-04-15T21:22:57.473Z,100972.53
2023-04-15T21:25:27.312Z,100969.16
2023-04-15T21:27:57.732Z,100970.19
2023-04-15T21:30:27.704Z,100973.94
2023-04-15T21:32:58.424Z,100968.78
2023-04-15T21:35:29.947Z,100967.34
2023-04-15T21:38:00.354Z,100964.63
2023-04-15T21:40:30.158Z,100968.69
2023-04-15T21:43:00.506Z,100980.09
2023-04-15T21:45:30.508Z,100978.66
2023-04-15T21:48:07.884Z,100987.59
2023-04-15T21:50:41.600Z,100980.44
2023-04-15T21:53:12.244Z,100980.25
2023-04-15T21:55:42.155Z,100975.81
2023-04-15T21:58:12.551Z,100975.81
2023-04-15T22:00:42.562Z,100978.66
2023-04-15T22:03:13.355Z,100976.72
2023-04-15T22:05:47.502Z,100988.31
2023-04-15T22:08:17.838Z,100986.88
2023-04-15T22:10:47.924Z,100989.53
2023-04-15T22:13:18.669Z,100994.03
2023-04-15T22:15:48.755Z,100997.41
2023-04-15T22:18:19.226Z,101005.25
2023-04-15T22:20:49.176Z,101005.94
2023-04-15T22:23:21.570Z,100998.44
2023-04-15T22:25:51.533Z,100998.66
2023-04-15T22:28:21.426Z,100997.03
2023-04-15T22:30:51.773Z,100988.50
2023-04-15T22:33:21.741Z,100985.09
2023-04-15T22:35:52.184Z,100990.63
2023-04-15T22:38:22.284Z,100981.56
2023-04-15T22:40:55.057Z,100981.91
2023-04-15T22:43:25.019Z,100984.94
2023-04-15T22:45:55.941Z,100981.34
2023-04-15T22:48:25.856Z,100977.38
2023-04-15T22:50:56.219Z,100976.44
2023-04-15T22:53:26.089Z,100973.91
2023-04-15T22:55:56.479Z,100973.25
2023-04-15T22:58:26.407Z,100976.78
2023-04-15T23:00:56.902Z,100978.44
2023-04-15T23:03:27.133Z,100987.47
2023-04-15T23:05:58.683Z,100996.19
2023-04-15T23:08:28.398Z,100998.22
2023-04-15T23:10:58.733Z,100996.91
2023-04-15T23:13:28.502Z,101002.63
2023-04-15T23:15:58.933Z,101004.84
2023-04-15T23:18:28.849Z,101010.50
2023-04-15T23:20:59.197Z,101010.00
2023-04-15T23:23:29.108Z,101006.84
2023-04-15T23:25:59.525Z,101019.63
2023-04-15T23:28:29.437Z,101017.88
2023-04-15T23:31:00.425Z,101021.47
2023-04-15T23:33:30.732Z,101006.34
2023-04-15T23:36:01.355Z,101015.91
2023-04-15T23:38:31.923Z,101020.34
2023-04-15T23:41:02.153Z,101013.88
2023-04-15T23:43:32.555Z,101019.16
2023-04-15T23:46:02.507Z,101020.78
2023-04-15T23:48:33.185Z,101023.72
2023-04-15T23:51:03.212Z,101020.47
2023-04-15T23:53:33.539Z,101014.84
2023-04-15T23:56:03.501Z,101035.91
2023-04-15T23:58:34.585Z,101024.47
